Time;durP1;ratioP1;P1;durP2;ratioP2;P2;SDS_P1;SDS_P2;PMS_P1;PMS_P2;Temp;Humidity;BMP_temperature;BMP_pressure;BME280_temperature;BME280_humidity;BME280_pressure;Samples;Min_cycle;Max_cycle;Signal;HPM_P1;HPM_P2
2023/08/03 00:00:30;;;;;;;;;0.67;0.00;;;;;26.96;44.75;99661.13;5034731;28;45397;-72
2023/08/03 00:02:55;;;;;;;;;0.00;0.00;;;;;26.96;44.67;99664.59;5034645;27;47503;-72
2023/08/03 00:05:21;;;;;;;;;0.00;0.00;;;;;26.97;44.73;99673.44;5034517;28;45433;-72
2023/08/03 00:07:48;;;;;;;;;0.00;0.00;;;;;27.00;44.78;99675.63;5034414;28;45374;-72
2023/08/03 00:10:14;;;;;;;;;0.00;0.00;;;;;27.01;44.16;99679.88;5034627;28;45367;-71
2023/08/03 00:12:40;;;;;;;;;0.00;0.00;;;;;27.00;44.28;99680.94;5034251;28;45374;-72
2023/08/03 00:15:05;;;;;;;;;0.00;0.00;;;;;26.99;44.46;99670.50;5034424;28;45352;-72
2023/08/03 00:17:31;;;;;;;;;1.00;0.00;;;;;27.02;44.26;99681.50;5034382;28;45307;-72
2023/08/03 00:19:56;;;;;;;;;1.00;0.00;;;;;27.01;44.77;99684.44;5034226;28;45574;-72
2023/08/03 00:22:22;;;;;;;;;0.00;0.00;;;;;26.99;44.92;99684.66;5034122;28;47312;-72
2023/08/03 00:24:49;;;;;;;;;0.00;0.00;;;;;27.04;44.43;99700.75;5034136;28;45373;-72
2023/08/03 00:27:15;;;;;;;;;0.00;0.00;;;;;27.04;44.48;99695.41;5034370;28;45286;-72
2023/08/03 00:29:40;;;;;;;;;0.00;0.00;;;;;27.04;44.95;99700.75;5034322;28;45321;-72
2023/08/03 00:32:06;;;;;;;;;0.00;0.00;;;;;27.05;44.68;99706.91;5034061;28;45951;-72
2023/08/03 00:34:31;;;;;;;;;1.33;0.00;;;;;26.99;45.08;99698.00;5034301;28;45414;-72
2023/08/03 00:36:57;;;;;;;;;0.00;0.00;;;;;27.06;44.17;99708.53;5033910;28;45349;-72
2023/08/03 00:39:23;;;;;;;;;0.00;0.00;;;;;27.06;44.88;99706.66;5034179;28;45408;-72
2023/08/03 00:41:48;;;;;;;;;0.67;0.00;;;;;27.07;45.03;99704.81;5034120;28;45432;-72
2023/08/03 00:44:13;;;;;;;;;0.00;0.00;;;;;27.05;44.30;99707.72;5034055;28;45441;-71
2023/08/03 00:46:39;;;;;;;;;0.67;0.00;;;;;27.04;44.31;99707.94;5034393;28;45346;-72
2023/08/03 00:49:04;;;;;;;;;1.00;0.00;;;;;27.07;44.90;99713.63;5034000;28;45479;-72
2023/08/03 00:51:29;;;;;;;;;0.00;0.00;;;;;27.07;45.01;99718.16;5015712;28;48054;-72
2023/08/03 00:53:55;;;;;;;;;0.00;0.00;;;;;27.03;44.44;99709.03;5034002;28;45379;-72
2023/08/03 00:56:21;;;;;;;;;0.00;0.00;;;;;27.07;44.47;99718.97;5034008;28;45259;-72
2023/08/03 00:58:46;;;;;;;;;0.00;0.00;;;;;27.09;44.36;99729.38;5034030;28;45397;-71
2023/08/03 01:01:12;;;;;;;;;1.00;0.00;;;;;27.08;44.94;99722.44;5033972;28;47085;-72
2023/08/03 01:03:37;;;;;;;;;1.00;0.00;;;;;27.10;44.66;99719.53;5033877;28;45322;-72
2023/08/03 01:06:02;;;;;;;;;1.00;0.00;;;;;27.10;44.36;99731.03;5033715;28;45750;-72
2023/08/03 01:08:28;;;;;;;;;2.00;0.00;;;;;27.11;44.98;99724.66;5033886;28;45394;-72
2023/08/03 01:10:54;;;;;;;;;0.00;0.00;;;;;27.11;44.73;99729.97;5033729;28;46141;-72
2023/08/03 01:13:20;;;;;;;;;0.00;0.00;;;;;27.12;44.26;99728.91;5015721;28;45358;-72
2023/08/03 01:15:46;;;;;;;;;0.00;0.00;;;;;27.14;44.99;99744.75;5033864;28;45170;-72
2023/08/03 01:18:11;;;;;;;;;0.00;0.00;;;;;27.10;44.83;99743.56;5033221;27;45271;-72
2023/08/03 01:20:39;;;;;;;;;0.00;0.00;;;;;27.12;44.47;99752.94;5033812;28;45211;-72
2023/08/03 01:23:05;;;;;;;;;0.00;0.00;;;;;27.12;44.50;99736.91;5033576;28;45281;-72
2023/08/03 01:25:33;;;;;;;;;0.00;0.00;;;;;27.15;44.48;99741.00;5033540;28;45280;-71
2023/08/03 01:27:58;;;;;;;;;0.33;0.00;;;;;27.15;45.14;99738.31;5033656;28;45437;-71
2023/08/03 01:30:24;;;;;;;;;0.00;0.00;;;;;27.14;44.73;99744.75;5033385;28;45301;-72
2023/08/03 01:32:50;;;;;;;;;1.00;0.00;;;;;27.14;44.35;99750.88;5033212;28;45683;-71
2023/08/03 01:35:16;;;;;;;;;1.67;0.00;;;;;27.14;44.48;99742.84;5033533;28;45336;-72
2023/08/03 01:37:41;;;;;;;;;0.00;0.00;;;;;27.14;44.28;99740.19;5033648;28;45378;-72
2023/08/03 01:40:10;;;;;;;;;0.00;0.00;;;;;27.13;44.69;99746.59;5015548;27;47302;-72
2023/08/03 01:42:36;;;;;;;;;0.00;0.00;;;;;27.09;45.03;99740.06;5033511;28;45381;-72
2023/08/03 01:45:01;;;;;;;;;0.00;0.00;;;;;27.13;45.14;99741.25;5033344;28;45377;-72
2023/08/03 01:47:26;;;;;;;;;1.00;0.00;;;;;27.13;44.50;99751.94;5031751;28;45487;-72
2023/08/03 01:49:52;;;;;;;;;0.00;0.00;;;;;27.13;45.12;99759.94;5032808;27;45961;-72
2023/08/03 01:52:17;;;;;;;;;0.00;0.00;;;;;27.11;45.15;99751.34;5033095;27;45304;-72
2023/08/03 01:54:42;;;;;;;;;0.00;0.00;;;;;27.10;44.93;99757.72;5033430;28;45346;-72
2023/08/03 01:57:08;;;;;;;;;1.00;0.00;;;;;27.14;44.72;99761.53;5033282;28;45341;-72
2023/08/03 01:59:33;;;;;;;;;0.00;0.00;;;;;27.13;44.46;99757.28;5032849;28;48987;-72
2023/08/03 02:01:59;;;;;;;;;0.00;0.00;;;;;27.15;44.47;99765.03;5032788;28;45323;-72
2023/08/03 02:04:24;;;;;;;;;0.00;0.00;;;;;27.14;45.20;99756.19;5032914;28;49815;-72
2023/08/03 02:06:51;;;;;;;;;0.00;0.00;;;;;27.15;44.80;99757.00;5033211;27;45381;-72
2023/08/03 02:09:17;;;;;;;;;0.00;0.00;;;;;27.14;45.14;99761.53;5032916;28;47078;-72
2023/08/03 02:11:43;;;;;;;;;1.00;0.67;;;;;27.13;44.54;99756.47;5032784;28;45233;-72
2023/08/03 02:14:08;;;;;;;;;1.00;0.00;;;;;27.15;44.46;99754.34;5033040;28;45357;-71
2023/08/03 02:16:33;;;;;;;;;0.00;0.00;;;;;27.16;44.38;99772.00;5032835;28;45304;-72
2023/08/03 02:18:59;;;;;;;;;0.00;0.00;;;;;27.16;44.78;99762.13;5043998;27;47112;-72
2023/08/03 02:21:24;;;;;;;;;0.67;0.00;;;;;27.15;44.89;99763.16;5052916;28;45330;-72
2023/08/03 02:23:49;;;;;;;;;1.00;0.00;;;;;27.16;45.13;99761.31;5053050;28;45653;-72
2023/08/03 02:26:15;;;;;;;;;0.00;0.00;;;;;27.15;44.63;99760.50;5034932;28;45348;-72
2023/08/03 02:28:40;;;;;;;;;0.00;0.00;;;;;27.18;44.81;99775.22;5052696;28;46524;-72
2023/08/03 02:31:06;;;;;;;;;0.33;0.00;;;;;27.14;44.91;99764.22;5052424;28;45256;-72
2023/08/03 02:33:31;;;;;;;;;0.00;0.00;;;;;27.18;44.55;99772.56;5052953;28;45407;-72
2023/08/03 02:35:56;;;;;;;;;0.00;0.00;;;;;27.18;44.47;99772.56;5052822;28;45408;-72
2023/08/03 02:38:22;;;;;;;;;2.00;0.00;;;;;27.13;45.09;99769.81;5052393;28;45391;-72
2023/08/03 02:40:47;;;;;;;;;0.00;0.00;;;;;27.19;44.84;99771.53;5052631;28;45427;-72
2023/08/03 02:43:12;;;;;;;;;0.33;0.33;;;;;27.19;44.80;99784.88;5052867;28;45299;-72
2023/08/03 02:45:38;;;;;;;;;0.00;0.00;;;;;27.18;45.03;99778.72;5052380;28;45278;-72
2023/08/03 02:48:03;;;;;;;;;0.00;0.00;;;;;27.18;44.99;99777.91;5052546;28;45286;-71
2023/08/03 02:50:29;;;;;;;;;1.00;0.00;;;;;27.18;44.34;99785.91;5052611;28;45275;-72
2023/08/03 02:52:54;;;;;;;;;0.00;0.00;;;;;27.17;45.00;99781.59;5037531;28;45354;-72
2023/08/03 02:55:19;;;;;;;;;0.33;0.00;;;;;27.15;44.98;99784.53;5032547;28;45435;-72
2023/08/03 02:57:45;;;;;;;;;0.00;0.00;;;;;27.15;45.06;99779.19;5032200;28;46273;-72
2023/08/03 03:00:11;;;;;;;;;0.00;0.00;;;;;27.12;45.01;99781.50;5031762;28;45428;-72
2023/08/03 03:02:36;;;;;;;;;0.00;0.00;;;;;27.17;44.70;99784.28;5035530;28;45433;-72
2023/08/03 03:05:02;;;;;;;;;0.00;0.00;;;;;27.17;44.59;99789.63;5035443;28;45459;-72
2023/08/03 03:07:27;;;;;;;;;0.00;0.00;;;;;27.16;44.67;99788.00;5035179;28;46973;-72
2023/08/03 03:09:53;;;;;;;;;0.00;0.00;;;;;27.17;44.73;99795.78;5035223;28;45425;-72
2023/08/03 03:12:18;;;;;;;;;1.00;0.00;;;;;27.17;45.21;99790.44;5035194;28;45476;-72
2023/08/03 03:14:43;;;;;;;;;0.00;0.00;;;;;27.15;45.09;99794.41;5035175;27;45408;-72
2023/08/03 03:17:09;;;;;;;;;0.00;0.00;;;;;27.16;45.21;99801.38;5035174;28;46101;-71
2023/08/03 03:19:34;;;;;;;;;0.00;0.00;;;;;27.16;44.85;99794.16;5034737;27;45400;-71
2023/08/03 03:21:59;;;;;;;;;0.00;0.00;;;;;27.14;45.26;99796.25;5035349;28;45352;-72
2023/08/03 03:24:25;;;;;;;;;0.00;0.00;;;;;27.17;45.13;99801.09;5035031;28;45434;-72
2023/08/03 03:26:50;;;;;;;;;0.00;0.00;;;;;27.19;44.65;99808.91;5034997;28;45957;-71
2023/08/03 03:29:15;;;;;;;;;0.33;0.33;;;;;27.17;44.94;99816.31;5034781;28;45376;-71
2023/08/03 03:31:41;;;;;;;;;0.00;0.00;;;;;27.20;45.16;99807.00;5035083;28;45326;-72
2023/08/03 03:34:06;;;;;;;;;0.00;0.00;;;;;27.19;44.53;99816.91;5035078;28;45327;-71
2023/08/03 03:36:32;;;;;;;;;0.00;0.00;;;;;27.21;45.00;99808.66;5034921;28;45464;-72
2023/08/03 03:38:57;;;;;;;;;0.00;0.00;;;;;27.16;45.10;99809.38;5034802;28;45488;-72
2023/08/03 03:41:22;;;;;;;;;0.00;0.00;;;;;27.21;45.04;99808.66;5034882;28;46045;-72
2023/08/03 03:43:48;;;;;;;;;0.00;0.00;;;;;27.21;44.45;99833.50;5034601;28;45292;-72
2023/08/03 03:46:13;;;;;;;;;0.00;0.00;;;;;27.21;44.59;99822.81;5016868;28;48054;-71
2023/08/03 03:48:39;;;;;;;;;1.00;0.00;;;;;27.21;44.47;99836.16;5034863;28;45366;-72
2023/08/03 03:51:04;;;;;;;;;0.00;0.00;;;;;27.20;44.71;99837.19;5034779;28;45412;-72
2023/08/03 03:53:29;;;;;;;;;0.00;0.00;;;;;27.21;44.93;99843.34;5034653;28;45390;-72
2023/08/03 03:55:55;;;;;;;;;2.00;0.00;;;;;27.20;44.50;99842.53;5034611;28;46143;-71
2023/08/03 03:58:20;;;;;;;;;0.00;0.00;;;;;27.22;45.29;99845.00;5034215;28;45304;-72
2023/08/03 04:00:45;;;;;;;;;0.00;0.00;;;;;27.17;45.19;99851.84;5034675;28;45404;-72
2023/08/03 04:03:11;;;;;;;;;2.00;0.00;;;;;27.21;44.49;99854.03;5034672;27;45350;-72
2023/08/03 04:05:37;;;;;;;;;0.00;0.00;;;;;27.20;44.52;99855.06;5034518;28;45262;-72
2023/08/03 04:08:03;;;;;;;;;1.00;0.00;;;;;27.18;44.80;99847.31;5034622;28;45315;-72
2023/08/03 04:10:30;;;;;;;;;1.00;0.00;;;;;27.18;44.87;99856.13;5034526;28;45324;-72
2023/08/03 04:12:55;;;;;;;;;0.00;0.00;;;;;27.18;45.03;99864.16;5033668;28;45342;-72
2023/08/03 04:15:21;;;;;;;;;0.00;0.00;;;;;27.13;44.56;99861.38;5034278;28;45774;-72
2023/08/03 04:17:48;;;;;;;;;0.00;0.00;;;;;27.15;45.09;99861.13;5032828;27;45326;-72
2023/08/03 04:20:14;;;;;;;;;0.00;0.00;;;;;27.16;44.61;99870.78;5034527;28;45439;-72
2023/08/03 04:22:39;;;;;;;;;0.00;0.00;;;;;27.16;44.78;99871.59;5034572;27;45275;-72
2023/08/03 04:25:05;;;;;;;;;0.00;0.00;;;;;27.16;44.83;99876.94;5034059;28;46445;-72
2023/08/03 04:27:30;;;;;;;;;0.00;0.00;;;;;27.16;44.55;99876.94;5033962;28;45340;-72
2023/08/03 04:29:55;;;;;;;;;1.00;0.00;;;;;27.17;45.19;99883.06;5034469;28;45348;-72
2023/08/03 04:32:21;;;;;;;;;0.00;0.00;;;;;27.18;44.64;99887.38;5034225;28;45297;-72
2023/08/03 04:34:46;;;;;;;;;0.00;0.00;;;;;27.18;44.58;99893.53;5034203;28;46237;-72
2023/08/03 04:37:11;;;;;;;;;0.67;0.00;;;;;27.17;45.14;99883.06;5034178;28;45459;-72
2023/08/03 04:39:37;;;;;;;;;0.67;0.00;;;;;27.20;44.61;99897.78;5034192;28;45336;-72
2023/08/03 04:42:02;;;;;;;;;2.00;0.33;;;;;27.17;45.21;99894.56;5033761;28;45445;-72
2023/08/03 04:44:27;;;;;;;;;0.00;0.00;;;;;27.20;44.61;99895.13;5034151;28;45409;-72
2023/08/03 04:46:53;;;;;;;;;0.67;0.00;;;;;27.19;44.79;99894.34;5034021;28;45704;-71
2023/08/03 04:49:18;;;;;;;;;1.00;1.00;;;;;27.18;44.53;99898.03;5034176;28;45410;-72
2023/08/03 04:51:43;;;;;;;;;0.00;0.00;;;;;27.20;44.67;99908.47;5016132;28;45451;-72
2023/08/03 04:54:09;;;;;;;;;0.00;0.00;;;;;27.18;45.20;99901.53;5033951;27;45398;-71
2023/08/03 04:56:34;;;;;;;;;0.00;0.00;;;;;27.18;45.23;99917.56;5033783;28;45450;-72
2023/08/03 04:58:59;;;;;;;;;0.00;0.00;;;;;27.18;44.88;99914.06;5034081;28;45433;-71
2023/08/03 05:01:25;;;;;;;;;0.00;0.00;;;;;27.20;45.31;99925.31;5034058;28;45364;-72
2023/08/03 05:03:52;;;;;;;;;0.00;0.00;;;;;27.21;44.71;99923.47;5016027;28;46999;-72
2023/08/03 05:06:17;;;;;;;;;0.67;0.00;;;;;27.20;45.21;99933.31;5033890;28;45429;-72
2023/08/03 05:08:42;;;;;;;;;0.00;0.00;;;;;27.19;44.80;99942.41;5034005;27;45596;-72
2023/08/03 05:11:08;;;;;;;;;0.00;0.00;;;;;27.20;44.61;99944.00;5033641;28;45411;-72
2023/08/03 05:13:33;;;;;;;;;1.00;0.67;;;;;27.16;44.55;99941.00;5033595;28;47255;-72
2023/08/03 05:15:58;;;;;;;;;2.00;0.00;;;;;27.21;45.14;99956.31;5033875;28;45316;-72
2023/08/03 05:18:24;;;;;;;;;0.00;0.00;;;;;27.21;44.64;99952.84;5033440;27;45262;-72
2023/08/03 05:20:49;;;;;;;;;0.00;0.00;;;;;27.21;44.47;99959.00;5033733;28;45461;-72
2023/08/03 05:23:14;;;;;;;;;0.00;0.00;;;;;27.21;44.95;99955.50;5032628;28;46257;-72
2023/08/03 05:25:40;;;;;;;;;0.00;0.00;;;;;27.18;44.87;99962.94;5033186;28;45338;-72
2023/08/03 05:28:06;;;;;;;;;1.00;0.00;;;;;27.17;44.73;99960.50;5033819;28;45281;-72
2023/08/03 05:30:31;;;;;;;;;1.00;0.00;;;;;27.18;45.31;99962.94;5033916;27;45423;-72
2023/08/03 05:32:57;;;;;;;;;0.00;0.00;;;;;27.20;45.51;99964.53;5033320;28;46965;-72
2023/08/03 05:35:22;;;;;;;;;0.00;0.00;;;;;27.20;44.71;99970.72;5033614;28;45688;-73
2023/08/03 05:37:52;;;;;;;;;0.00;0.00;;;;;27.20;44.67;99980.56;5033659;28;45858;-72
2023/08/03 05:40:17;;;;;;;;;0.00;0.00;;;;;27.17;44.98;99973.84;5033067;28;45326;-72
2023/08/03 05:42:42;;;;;;;;;0.00;0.00;;;;;27.19;44.76;99974.44;5033106;28;46349;-72
2023/08/03 05:45:14;;;;;;;;;0.00;0.00;;;;;27.19;44.65;99977.09;5033443;28;45341;-72
2023/08/03 05:47:39;;;;;;;;;1.00;1.00;;;;;27.15;44.91;99978.63;5033449;28;45457;-72
2023/08/03 05:50:15;;;;;;;;;0.00;0.00;;;;;27.20;45.43;99994.72;5033234;28;45393;-72
2023/08/03 05:52:41;;;;;;;;;0.00;0.00;;;;;27.20;45.36;99985.91;5032985;28;46122;-74
2023/08/03 05:55:11;;;;;;;;;0.00;0.00;;;;;27.18;44.61;99978.97;5032778;28;45329;-72
2023/08/03 05:57:37;;;;;;;;;0.00;0.00;;;;;27.20;45.13;99985.91;5033118;28;45411;-72
2023/08/03 06:00:07;;;;;;;;;0.00;0.00;;;;;27.16;45.22;99975.72;5032721;28;45559;-73
2023/08/03 06:02:33;;;;;;;;;0.67;0.00;;;;;27.20;44.73;100000.06;5015019;28;47513;-72
2023/08/03 06:04:59;;;;;;;;;0.00;0.00;;;;;27.20;45.37;100002.75;5030843;28;45547;-70
2023/08/03 06:07:24;;;;;;;;;0.00;0.00;;;;;27.22;45.38;100005.19;5028485;27;45397;-70
2023/08/03 06:09:50;;;;;;;;;0.00;0.00;;;;;27.23;45.13;100009.47;5044464;27;45550;-71
2023/08/03 06:12:15;;;;;;;;;0.00;0.00;;;;;27.23;45.65;100010.28;5082038;27;46216;-71
2023/08/03 06:14:41;;;;;;;;;1.67;0.00;;;;;27.22;45.51;100018.53;5094008;27;45291;-71
2023/08/03 06:17:08;;;;;;;;;0.00;0.00;;;;;27.23;45.52;100020.16;5036315;27;45341;-71
2023/08/03 06:19:35;;;;;;;;;1.00;0.33;;;;;27.24;45.68;100021.78;5040038;28;45876;-71
2023/08/03 06:22:04;;;;;;;;;0.00;0.00;;;;;27.21;45.25;100031.09;5029351;28;46282;-71
2023/08/03 06:24:29;;;;;;;;;3.00;1.00;;;;;27.23;45.64;100036.19;5031671;27;45341;-72
2023/08/03 06:26:57;;;;;;;;;0.67;0.00;;;;;27.22;45.65;100035.34;5032473;28;45228;-72
2023/08/03 06:29:23;;;;;;;;;1.00;0.00;;;;;27.24;45.81;100043.16;5014731;27;45467;-74
2023/08/03 06:31:49;;;;;;;;;0.00;0.00;;;;;27.22;45.89;100040.69;5032614;27;45397;-74
2023/08/03 06:34:15;;;;;;;;;0.00;0.00;;;;;27.23;45.90;100049.53;5032626;28;45432;-75
2023/08/03 06:36:44;;;;;;;;;0.00;0.00;;;;;27.26;46.13;100049.88;5035436;28;45758;-71
2023/08/03 06:39:09;;;;;;;;;2.67;0.67;;;;;27.27;45.63;100058.72;5032638;27;45370;-72
2023/08/03 06:41:35;;;;;;;;;1.00;0.00;;;;;27.25;45.42;100055.44;5018217;28;47049;-71
2023/08/03 06:44:01;;;;;;;;;1.00;1.00;;;;;27.27;45.89;100058.72;5048912;27;45571;-71
2023/08/03 06:46:27;;;;;;;;;1.00;0.00;;;;;27.28;45.40;100063.81;5026984;28;45304;-71
2023/08/03 06:48:53;;;;;;;;;0.67;0.00;;;;;27.29;45.09;100068.09;5024849;28;45350;-72
2023/08/03 06:51:19;;;;;;;;;0.00;0.00;;;;;27.22;45.31;100050.59;5029869;28;46137;-72
2023/08/03 06:53:46;;;;;;;;;2.00;0.00;;;;;27.27;45.24;100062.16;5030104;28;45429;-71
2023/08/03 06:56:12;;;;;;;;;0.00;0.00;;;;;27.29;45.16;100068.09;5030137;27;45968;-72
2023/08/03 06:58:37;;;;;;;;;1.00;0.00;;;;;27.31;45.90;100065.19;5026690;28;45412;-71
2023/08/03 07:01:03;;;;;;;;;0.00;0.00;;;;;27.30;45.48;100071.56;5025710;27;45450;-71
2023/08/03 07:03:29;;;;;;;;;0.00;0.00;;;;;27.31;45.06;100070.53;5027024;28;46378;-71
2023/08/03 07:05:55;;;;;;;;;0.00;0.00;;;;;27.32;45.70;100076.69;5025531;28;45460;-70
2023/08/03 07:08:20;;;;;;;;;0.00;0.00;;;;;27.31;45.73;100078.53;5028449;28;45542;-71
2023/08/03 07:10:46;;;;;;;;;0.00;0.00;;;;;27.32;45.07;100082.03;5023484;28;50805;-72
2023/08/03 07:13:11;;;;;;;;;0.00;0.00;;;;;27.31;45.83;100089.22;5012546;28;45762;-71
2023/08/03 07:15:37;;;;;;;;;0.00;0.00;;;;;27.27;45.77;100080.06;5028677;28;45658;-71
2023/08/03 07:18:04;;;;;;;;;0.00;0.00;;;;;27.30;45.19;100082.25;5024317;27;45634;-72
2023/08/03 07:20:29;;;;;;;;;0.00;0.00;;;;;27.24;45.16;100076.00;5097650;27;47148;-71
2023/08/03 07:22:55;;;;;;;;;0.00;0.00;;;;;27.31;45.02;100086.56;5022821;27;45992;-71
2023/08/03 07:25:20;;;;;;;;;1.00;0.00;;;;;27.26;45.23;100094.47;5029021;28;45439;-72
2023/08/03 07:27:45;;;;;;;;;0.67;0.67;;;;;27.27;45.68;100098.75;5029911;28;45571;-72
2023/08/03 07:30:11;;;;;;;;;0.33;0.33;;;;;27.31;45.44;100099.09;5030525;28;46071;-72
2023/08/03 07:32:37;;;;;;;;;0.00;0.00;;;;;27.29;45.15;100097.50;5026282;28;45571;-72
2023/08/03 07:35:03;;;;;;;;;0.00;0.00;;;;;27.29;45.54;100108.16;5029795;28;45575;-71
2023/08/03 07:37:28;;;;;;;;;0.00;0.00;;;;;27.29;45.62;100110.84;5022810;28;45609;-72
2023/08/03 07:39:53;;;;;;;;;0.00;0.00;;;;;27.31;45.15;100123.13;5029554;28;46255;-72
2023/08/03 07:42:19;;;;;;;;;0.00;0.00;;;;;27.29;45.70;100124.19;5025294;28;45413;-72
2023/08/03 07:44:44;;;;;;;;;0.00;0.00;;;;;27.28;45.04;100119.06;5029989;28;45488;-71
2023/08/03 07:47:09;;;;;;;;;0.00;0.00;;;;;27.32;45.07;100130.09;5022431;28;45980;-72
2023/08/03 07:49:35;;;;;;;;;0.00;0.00;;;;;27.31;45.33;100133.81;5029183;28;46289;-72
2023/08/03 07:52:00;;;;;;;;;1.00;1.00;;;;;27.29;45.13;100139.41;5021751;28;45463;-71
2023/08/03 07:54:25;;;;;;;;;0.67;0.67;;;;;27.29;45.02;100139.41;5028595;28;45402;-72
2023/08/03 07:56:51;;;;;;;;;1.33;0.00;;;;;27.28;45.34;100135.09;5029507;28;45380;-72
2023/08/03 07:59:16;;;;;;;;;2.00;1.00;;;;;27.29;45.41;100139.41;5029469;28;45534;-72
2023/08/03 08:01:43;;;;;;;;;0.00;0.00;;;;;27.32;45.41;100143.47;5025178;28;45423;-71
2023/08/03 08:04:09;;;;;;;;;0.00;0.00;;;;;27.32;45.14;100152.28;5029542;28;45505;-71
2023/08/03 08:06:35;;;;;;;;;0.00;0.00;;;;;27.30;44.87;100154.34;5021406;28;45507;-71
2023/08/03 08:09:00;;;;;;;;;0.00;0.00;;;;;27.31;45.42;100158.66;5029010;28;46544;-71
2023/08/03 08:11:25;;;;;;;;;1.00;1.00;;;;;27.31;45.56;100165.84;5028664;28;45538;-71
2023/08/03 08:13:51;;;;;;;;;0.00;0.00;;;;;27.32;45.57;100178.19;5026914;28;45435;-71
2023/08/03 08:16:16;;;;;;;;;0.00;0.00;;;;;27.31;45.59;100176.53;5028612;28;45628;-71
2023/08/03 08:18:42;;;;;;;;;0.33;0.00;;;;;27.31;45.52;100181.88;5032331;27;47037;-70
2023/08/03 08:21:10;;;;;;;;;0.00;0.00;;;;;27.31;44.94;100187.22;5029313;28;45530;-71
2023/08/03 08:23:36;;;;;;;;;2.00;0.67;;;;;27.30;45.05;100186.41;5029021;27;45683;-71
2023/08/03 08:26:08;;;;;;;;;0.33;0.00;;;;;27.27;45.61;100184.22;5029403;28;45406;-71
2023/08/03 08:28:34;;;;;;;;;0.33;0.33;;;;;27.31;45.06;100193.38;5028707;28;47138;-71
2023/08/03 08:30:59;;;;;;;;;0.00;0.00;;;;;27.32;45.10;100191.53;5028976;28;46129;-71
2023/08/03 08:33:24;;;;;;;;;0.00;0.00;;;;;27.29;45.18;100198.16;5027948;28;45398;-70
2023/08/03 08:35:50;;;;;;;;;1.00;1.00;;;;;27.30;45.40;100207.78;5022167;28;45726;-71
2023/08/03 08:38:16;;;;;;;;;0.00;0.00;;;;;27.33;45.01;100214.50;5028819;28;47113;-72
2023/08/03 08:40:44;;;;;;;;;0.00;0.00;;;;;27.33;45.10;100214.50;5047619;27;45607;-71
2023/08/03 08:43:09;;;;;;;;;0.67;0.67;;;;;27.32;45.45;100215.56;5035383;27;45438;-71
2023/08/03 08:45:36;;;;;;;;;0.00;0.00;;;;;27.34;45.21;100219.63;5114628;27;46005;-71
2023/08/03 08:48:03;;;;;;;;;0.33;0.00;;;;;27.37;45.56;100221.84;5021118;28;45584;-71
2023/08/03 08:50:29;;;;;;;;;1.00;1.00;;;;;27.37;44.93;100223.69;5028700;28;45359;-72
2023/08/03 08:52:55;;;;;;;;;0.00;0.00;;;;;27.39;44.81;100234.97;5028484;28;45726;-71
2023/08/03 08:55:24;;;;;;;;;2.00;0.00;;;;;27.37;45.18;100237.88;5028987;28;45490;-71
2023/08/03 08:57:51;;;;;;;;;2.00;1.00;;;;;27.35;45.31;100239.94;5025716;28;46125;-71
2023/08/03 09:00:17;;;;;;;;;0.00;0.00;;;;;27.37;45.40;100242.41;5028241;28;45764;-70
2023/08/03 09:02:42;;;;;;;;;0.00;0.00;;;;;27.33;45.40;100241.22;5028827;28;45526;-72
2023/08/03 09:05:16;;;;;;;;;2.00;0.33;;;;;27.36;45.16;100256.78;5028857;28;45518;-71
2023/08/03 09:07:42;;;;;;;;;1.67;0.33;;;;;27.36;45.56;100259.44;5028905;28;47173;-71
2023/08/03 09:10:08;;;;;;;;;0.33;0.00;;;;;27.36;45.59;100268.28;5028874;28;45607;-71
2023/08/03 09:12:34;;;;;;;;;1.00;0.33;;;;;27.34;45.50;100269.56;5028457;27;45363;-71
2023/08/03 09:14:59;;;;;;;;;1.00;0.00;;;;;27.38;45.02;100273.38;5027652;28;45540;-71
2023/08/03 09:17:26;;;;;;;;;0.00;0.00;;;;;27.36;45.23;100275.47;5027512;28;46328;-70
2023/08/03 09:19:52;;;;;;;;;1.00;1.00;;;;;27.37;45.14;100280.59;5021647;27;45577;-71
2023/08/03 09:22:25;;;;;;;;;1.00;1.00;;;;;27.37;45.66;100287.81;5026438;28;45481;-71
2023/08/03 09:25:07;;;;;;;;;1.33;1.00;;;;;27.36;45.70;100284.31;5028237;28;45554;-71
2023/08/03 09:27:34;;;;;;;;;0.00;0.00;;;;;27.37;45.56;100293.16;5027861;28;46260;-70
2023/08/03 09:30:00;;;;;;;;;0.00;0.00;;;;;27.38;44.99;100292.91;5028710;27;45558;-70
2023/08/03 09:32:34;;;;;;;;;1.00;1.00;;;;;27.38;45.27;100292.91;5027170;28;45493;-70
2023/08/03 09:35:00;;;;;;;;;2.00;0.00;;;;;27.37;45.62;100296.63;5028775;27;45457;-70
2023/08/03 09:37:36;;;;;;;;;0.00;0.00;;;;;27.39;45.48;100297.22;5026577;28;45499;-70
2023/08/03 09:40:05;;;;;;;;;0.00;0.00;;;;;27.40;44.88;100295.38;5023388;28;45348;-70
2023/08/03 09:42:33;;;;;;;;;0.00;0.00;;;;;27.38;45.44;100292.09;5060106;27;45637;-70
2023/08/03 09:45:03;;;;;;;;;2.00;0.33;;;;;27.38;45.32;100297.44;5027947;28;45653;-70
2023/08/03 09:47:34;;;;;;;;;0.00;0.00;;;;;27.39;45.56;100307.91;5024740;28;47219;-71
2023/08/03 09:50:00;;;;;;;;;0.00;0.00;;;;;27.39;45.58;100305.22;5028255;28;45557;-72
2023/08/03 09:52:27;;;;;;;;;0.33;0.33;;;;;27.38;45.34;100308.94;5027561;28;45504;-71
2023/08/03 09:54:58;;;;;;;;;0.00;0.00;;;;;27.38;44.86;100314.28;5028121;28;46486;-72
2023/08/03 09:57:28;;;;;;;;;1.00;0.00;;;;;27.39;45.56;100315.09;5027601;28;45525;-71
2023/08/03 10:00:00;;;;;;;;;0.00;0.00;;;;;27.37;45.51;100312.66;5027901;28;45971;-72
2023/08/03 10:02:32;;;;;;;;;0.33;0.33;;;;;27.42;45.69;100313.81;5023951;28;45311;-73
2023/08/03 10:05:02;;;;;;;;;2.33;1.00;;;;;27.36;44.98;100316.38;5028136;28;45445;-74
2023/08/03 10:07:35;;;;;;;;;1.00;1.00;;;;;27.31;45.08;100320.75;5027501;28;46022;-74
2023/08/03 10:10:04;;;;;;;;;1.00;1.00;;;;;27.20;45.16;100327.69;5027264;28;45384;-73
2023/08/03 10:12:43;;;;;;;;;2.00;0.00;;;;;27.04;45.19;100320.09;5026882;28;45992;-72
2023/08/03 10:15:10;;;;;;;;;1.00;1.00;;;;;26.96;45.37;100321.22;5028009;28;45329;-73
2023/08/03 10:17:38;;;;;;;;;2.67;1.00;;;;;26.86;45.43;100334.28;5027066;27;47119;-73
2023/08/03 10:20:06;;;;;;;;;0.33;0.33;;;;;26.72;45.46;100331.00;5027573;27;45619;-73
2023/08/03 10:22:31;;;;;;;;;2.00;2.00;;;;;26.64;46.23;100340.13;5027390;28;45375;-73
2023/08/03 10:25:16;;;;;;;;;1.00;1.00;;;;;26.56;45.74;100338.56;5027395;28;45461;-73
2023/08/03 10:27:41;;;;;;;;;1.33;1.00;;;;;26.47;46.79;100342.56;5027514;28;47019;-73
2023/08/03 10:30:06;;;;;;;;;1.00;1.00;;;;;26.43;46.05;100347.50;5026966;28;45427;-72
2023/08/03 10:32:32;;;;;;;;;1.00;1.00;;;;;26.35;46.67;100343.28;5027426;28;45576;-74
2023/08/03 10:35:37;;;;;;;;;0.67;0.67;;;;;26.31;46.61;100344.75;5027410;28;45978;-72
2023/08/03 10:38:02;;;;;;;;;1.00;1.00;;;;;26.26;47.44;100352.59;5027071;28;46067;-72
2023/08/03 10:40:27;;;;;;;;;1.00;1.00;;;;;26.26;47.51;100348.09;5023696;28;54344;-72
2023/08/03 10:43:08;;;;;;;;;2.00;2.00;;;;;26.24;47.46;100354.69;5034304;28;45627;-73
2023/08/03 10:45:35;;;;;;;;;1.33;1.33;;;;;26.17;47.27;100349.44;5033273;28;45634;-73
2023/08/03 10:48:27;;;;;;;;;1.67;1.67;;;;;26.15;47.27;100354.97;5032653;27;46819;-74
2023/08/03 10:51:00;;;;;;;;;1.00;1.00;;;;;26.12;47.03;100363.41;5023312;28;45540;-72
2023/08/03 10:53:26;;;;;;;;;1.67;1.67;;;;;26.04;47.74;100361.03;5019402;28;45426;-72
2023/08/03 10:56:03;;;;;;;;;2.00;2.00;;;;;26.00;47.30;100373.16;5026311;28;45352;-73
2023/08/03 10:58:28;;;;;;;;;1.00;1.00;;;;;25.92;47.20;100375.06;5017581;28;46997;-72
2023/08/03 11:00:54;;;;;;;;;2.00;2.00;;;;;25.85;47.74;100390.28;5027828;28;45907;-73
2023/08/03 11:03:19;;;;;;;;;2.67;1.33;;;;;25.80;47.84;100382.13;5031696;28;45569;-73
2023/08/03 11:05:54;;;;;;;;;1.00;1.00;;;;;25.76;47.87;100383.63;5030084;28;45536;-73
2023/08/03 11:08:19;;;;;;;;;4.00;2.00;;;;;25.69;48.41;100392.44;5027170;28;47295;-73
2023/08/03 11:10:44;;;;;;;;;2.00;2.00;;;;;25.66;48.58;100397.41;5032171;28;45479;-72
2023/08/03 11:13:10;;;;;;;;;2.00;2.00;;;;;25.60;48.49;100394.56;5028610;28;45419;-73
2023/08/03 11:15:35;;;;;;;;;2.00;2.00;;;;;25.57;48.41;100402.97;5020432;28;45636;-70
2023/08/03 11:18:00;;;;;;;;;1.00;1.00;;;;;25.52;48.90;100398.31;5026518;28;47000;-71
2023/08/03 11:20:26;;;;;;;;;2.00;1.00;;;;;25.54;49.20;100413.22;5026489;27;45578;-72
2023/08/03 11:22:51;;;;;;;;;4.00;2.67;;;;;25.51;49.17;100415.31;5028770;28;45516;-71
2023/08/03 11:25:19;;;;;;;;;4.00;2.00;;;;;25.52;49.21;100418.78;5027198;28;45553;-73